Time;durP1;ratioP1;P1;durP2;ratioP2;P2;SDS_P1;SDS_P2;PMS_P1;PMS_P2;Temp;Humidity;BMP_temperature;BMP_pressure;BME280_temperature;BME280_humidity;BME280_pressure;Samples;Min_cycle;Max_cycle;Signal;HPM_P1;HPM_P2
2022/09/06 00:01:48;0.00;0.00;0.62;0.00;0.00;0.62;8.50;7.80;;;28.40;28.80;;;;;;2241667;62;20382;-61
2022/09/06 00:04:32;0.00;0.00;0.62;0.00;0.00;0.62;7.83;7.07;;;28.40;28.90;;;;;;2242041;62;20374;-62
2022/09/06 00:07:17;0.00;0.00;0.62;0.00;0.00;0.62;7.83;7.20;;;28.30;28.90;;;;;;2241388;62;20456;-61
2022/09/06 00:10:02;0.00;0.00;0.62;0.00;0.00;0.62;7.83;7.13;;;28.30;28.90;;;;;;2241704;62;20430;-62
2022/09/06 00:12:47;0.00;0.00;0.62;0.00;0.00;0.62;7.83;7.23;;;28.30;28.90;;;;;;2242013;62;20407;-62
2022/09/06 00:15:33;0.00;0.00;0.62;0.00;0.00;0.62;8.23;7.50;;;28.30;29.00;;;;;;2241332;62;20382;-63
2022/09/06 00:18:19;0.00;0.00;0.62;0.00;0.00;0.62;8.40;7.50;;;28.20;29.00;;;;;;2241785;62;20371;-62
2022/09/06 00:21:11;0.00;0.00;0.62;0.00;0.00;0.62;7.30;6.70;;;28.20;29.00;;;;;;2473501;54;20599;-62
2022/09/06 00:23:56;0.00;0.00;0.62;0.00;0.00;0.62;7.70;7.03;;;28.20;29.00;;;;;;2241607;62;20801;-61
2022/09/06 00:26:41;0.00;0.00;0.62;0.00;0.00;0.62;8.80;8.10;;;28.20;29.00;;;;;;2242024;62;20402;-62
2022/09/06 00:29:26;0.00;0.00;0.62;0.00;0.00;0.62;9.33;8.47;;;28.20;29.10;;;;;;2241089;61;20362;-61
2022/09/06 00:32:10;0.00;0.00;0.62;0.00;0.00;0.62;8.07;7.33;;;28.20;29.20;;;;;;2241763;62;20473;-63
2022/09/06 00:34:56;0.00;0.00;0.62;0.00;0.00;0.62;8.07;7.37;;;28.10;29.20;;;;;;2241988;62;20359;-62
2022/09/06 00:37:41;0.00;0.00;0.62;0.00;0.00;0.62;7.67;7.07;;;28.10;29.20;;;;;;2241224;62;20370;-62
2022/09/06 00:40:29;0.00;0.00;0.62;0.00;0.00;0.62;8.50;7.80;;;28.10;29.20;;;;;;2241479;61;20450;-61
2022/09/06 00:43:14;0.00;0.00;0.62;0.00;0.00;0.62;8.63;7.87;;;28.10;29.30;;;;;;2241700;62;20366;-62
2022/09/06 00:46:00;0.00;0.00;0.62;0.00;0.00;0.62;8.40;7.70;;;28.10;29.40;;;;;;2241347;62;20394;-62
2022/09/06 00:48:48;0.00;0.00;0.62;0.00;0.00;0.62;7.53;6.93;;;28.00;29.40;;;;;;2241813;61;20358;-60
2022/09/06 00:51:35;0.00;0.00;0.62;0.00;0.00;0.62;8.03;7.33;;;28.00;29.30;;;;;;2241308;62;20382;-61
2022/09/06 00:54:20;0.00;0.00;0.62;0.00;0.00;0.62;8.97;8.10;;;28.00;29.30;;;;;;2241701;62;20359;-61
2022/09/06 00:57:05;0.00;0.00;0.62;0.00;0.00;0.62;7.77;7.10;;;28.00;29.50;;;;;;2241754;62;20426;-61
2022/09/06 00:59:50;0.00;0.00;0.62;0.00;0.00;0.62;7.93;7.30;;;27.90;29.40;;;;;;2241112;61;20797;-61
2022/09/06 01:02:35;0.00;0.00;0.62;0.00;0.00;0.62;9.97;7.13;;;27.90;29.50;;;;;;2241596;62;20403;-62
2022/09/06 01:05:24;0.00;0.00;0.62;0.00;0.00;0.62;8.40;7.70;;;27.80;29.50;;;;;;2241293;62;20386;-63
2022/09/06 01:08:20;0.00;0.00;0.62;0.00;0.00;0.62;8.17;7.47;;;27.80;29.60;;;;;;2241107;62;20366;-64
2022/09/06 01:11:48;0.00;0.00;0.62;0.00;0.00;0.62;7.73;6.83;;;27.80;29.60;;;;;;2468685;54;20411;-62
2022/09/06 01:15:02;0.00;0.00;0.62;0.00;0.00;0.62;8.40;7.60;;;27.80;29.60;;;;;;2237104;62;20360;-62
2022/09/06 01:17:59;0.00;0.00;0.62;0.00;0.00;0.62;7.50;6.93;;;27.70;29.50;;;;;;2237516;62;20564;-63
2022/09/06 01:21:00;0.00;0.00;0.62;0.00;0.00;0.62;7.23;6.73;;;27.70;30.00;;;;;;2240613;62;20437;-62
2022/09/06 01:24:17;0.00;0.00;0.62;0.00;0.00;0.62;6.70;6.10;;;27.80;29.60;;;;;;2241286;61;20387;-63
2022/09/06 01:27:51;0.00;0.00;0.62;0.00;0.00;0.62;8.50;6.37;;;27.80;29.60;;;;;;2244171;61;20374;-63
2022/09/06 01:30:44;0.00;0.00;0.62;0.00;0.00;0.62;7.40;6.80;;;27.80;29.50;;;;;;2241413;62;20401;-63
2022/09/06 01:33:40;0.00;0.00;0.62;0.00;0.00;0.62;7.20;6.60;;;27.80;29.60;;;;;;2241710;62;20402;-62
2022/09/06 01:36:31;0.00;0.00;0.62;0.00;0.00;0.62;7.30;6.70;;;27.80;29.50;;;;;;2240848;62;20362;-63
2022/09/06 01:39:22;0.00;0.00;0.62;0.00;0.00;0.62;7.20;6.57;;;27.80;29.50;;;;;;2241963;62;20370;-64
2022/09/06 01:42:13;0.00;0.00;0.62;0.00;0.00;0.62;7.87;7.17;;;27.90;29.50;;;;;;2242223;62;20394;-64
2022/09/06 01:45:03;0.00;0.00;0.62;0.00;0.00;0.62;7.20;6.60;;;27.90;29.50;;;;;;2242073;62;20438;-63
2022/09/06 01:48:00;0.00;0.00;0.62;0.00;0.00;0.62;6.80;6.30;;;27.90;29.50;;;;;;2242577;62;20368;-63
2022/09/06 01:51:04;0.00;0.00;0.62;0.00;0.00;0.62;7.40;6.80;;;27.90;29.50;;;;;;2242002;62;20405;-62
2022/09/06 01:54:06;0.00;0.00;0.62;0.00;0.00;0.62;6.60;6.00;;;27.90;29.40;;;;;;2242336;62;20406;-64
2022/09/06 01:57:06;0.00;0.00;0.62;0.00;0.00;0.62;6.87;6.27;;;27.90;29.40;;;;;;2242706;62;20359;-63
2022/09/06 02:00:06;0.00;0.00;0.62;0.00;0.00;0.62;7.23;6.63;;;27.90;29.40;;;;;;2241926;61;20393;-63
2022/09/06 02:03:07;0.00;0.00;0.62;0.00;0.00;0.62;6.90;6.33;;;27.90;29.30;;;;;;2242776;62;20379;-62
2022/09/06 02:05:57;0.00;0.00;0.62;0.00;0.00;0.62;7.07;6.43;;;27.90;29.30;;;;;;2241856;62;20450;-63
2022/09/06 02:08:46;0.00;0.00;0.62;0.00;0.00;0.62;6.80;6.20;;;27.90;29.20;;;;;;2242371;61;20367;-63
2022/09/06 02:11:39;0.00;0.00;0.62;0.00;0.00;0.62;7.17;6.57;;;27.90;29.20;;;;;;2242885;62;20455;-63
2022/09/06 02:14:30;0.00;0.00;0.62;0.00;0.00;0.62;7.27;6.67;;;27.90;29.20;;;;;;2242627;62;20682;-62
2022/09/06 02:17:22;0.00;0.00;0.62;0.00;0.00;0.62;6.50;6.00;;;28.00;29.20;;;;;;2242815;62;20752;-64
2022/09/06 02:20:11;0.00;0.00;0.62;0.00;0.00;0.62;8.53;6.40;;;27.90;29.10;;;;;;2241903;61;20722;-63
2022/09/06 02:23:01;0.00;0.00;0.62;0.00;0.00;0.62;6.40;5.80;;;27.90;29.10;;;;;;2242221;62;20394;-62
2022/09/06 02:25:49;0.00;0.00;0.62;0.00;0.00;0.62;6.80;6.20;;;27.90;29.10;;;;;;2242399;62;20422;-63
2022/09/06 02:28:35;0.00;0.00;0.62;0.00;0.00;0.62;6.80;6.30;;;27.90;29.00;;;;;;2241589;61;20362;-63
2022/09/06 02:31:26;0.00;0.00;0.62;0.00;0.00;0.62;6.53;6.03;;;27.90;29.00;;;;;;2242018;62;20382;-63
2022/09/06 02:34:15;0.00;0.00;0.62;0.00;0.00;0.62;7.13;6.53;;;27.90;29.00;;;;;;2242072;62;20386;-63
2022/09/06 02:37:00;0.00;0.00;0.62;0.00;0.00;0.62;6.97;6.37;;;27.90;29.00;;;;;;2241743;62;20363;-63
2022/09/06 02:39:45;0.00;0.00;0.62;0.00;0.00;0.62;6.63;6.07;;;27.90;28.90;;;;;;2242163;61;20398;-63
2022/09/06 02:42:30;0.00;0.00;0.62;0.00;0.00;0.62;6.43;5.73;;;27.90;28.90;;;;;;2241667;62;20362;-62
2022/09/06 02:45:15;0.00;0.00;0.62;0.00;0.00;0.62;6.30;5.70;;;27.90;28.90;;;;;;2241884;62;20427;-63
2022/09/06 02:48:00;0.00;0.00;0.62;0.00;0.00;0.62;6.83;6.27;;;27.90;28.90;;;;;;2242281;61;20379;-64
2022/09/06 02:50:46;0.00;0.00;0.62;0.00;0.00;0.62;6.70;6.10;;;27.90;28.80;;;;;;2241584;62;20417;-64
2022/09/06 02:53:30;0.00;0.00;0.62;0.00;0.00;0.62;7.00;6.50;;;27.90;28.90;;;;;;2241902;62;20377;-63
2022/09/06 02:56:15;0.00;0.00;0.62;0.00;0.00;0.62;7.17;6.67;;;27.90;28.80;;;;;;2241769;62;20362;-62
2022/09/06 02:59:00;0.00;0.00;0.62;0.00;0.00;0.62;6.60;6.00;;;27.90;28.90;;;;;;2242108;61;20421;-63
2022/09/06 03:01:44;0.00;0.00;0.62;0.00;0.00;0.62;5.67;5.17;;;27.90;28.90;;;;;;2481944;54;20399;-64
2022/09/06 03:04:29;0.00;0.00;0.62;0.00;0.00;0.62;6.00;5.50;;;27.90;29.00;;;;;;2237564;62;20394;-62
2022/09/06 03:07:15;0.00;0.00;0.62;0.00;0.00;0.62;6.07;5.47;;;27.90;28.90;;;;;;2237944;62;20367;-62
2022/09/06 03:10:00;0.00;0.00;0.62;0.00;0.00;0.62;6.53;6.03;;;27.90;28.90;;;;;;2240485;61;20766;-63
2022/09/06 03:12:45;0.00;0.00;0.62;0.00;0.00;0.62;6.37;5.77;;;27.90;28.90;;;;;;2241488;62;20366;-60
2022/09/06 03:15:30;0.00;0.00;0.62;0.00;0.00;0.62;5.63;5.10;;;27.90;28.90;;;;;;2241794;62;20719;-63
2022/09/06 03:18:14;0.00;0.00;0.62;0.00;0.00;0.62;6.17;5.67;;;27.90;28.90;;;;;;2242112;62;20382;-62
2022/09/06 03:20:59;0.00;0.00;0.62;0.00;0.00;0.62;5.73;5.23;;;27.80;28.90;;;;;;2622947;46;20426;-64
2022/09/06 03:23:46;0.00;0.00;0.62;0.00;0.00;0.62;5.83;5.27;;;27.80;28.90;;;;;;2242154;62;20386;-64
2022/09/06 03:26:31;0.00;0.00;0.62;0.00;0.00;0.62;6.50;5.90;;;27.80;28.90;;;;;;2241668;62;20362;-63
2022/09/06 03:29:15;0.00;0.00;0.62;0.00;0.00;0.62;6.60;6.00;;;27.80;28.90;;;;;;2241830;61;20734;-62
2022/09/06 03:32:00;0.00;0.00;0.62;0.00;0.00;0.62;6.30;5.80;;;27.80;29.00;;;;;;2242174;62;20358;-63
2022/09/06 03:34:45;0.00;0.00;0.62;0.00;0.00;0.62;5.80;5.30;;;27.80;29.00;;;;;;2241435;62;20627;-62
2022/09/06 03:37:29;0.00;0.00;0.62;0.00;0.00;0.62;8.33;6.53;;;27.80;29.00;;;;;;2241761;62;20370;-63
2022/09/06 03:40:16;0.00;0.00;0.62;0.00;0.00;0.62;8.80;6.00;;;27.80;29.00;;;;;;2241819;62;20414;-63
2022/09/06 03:43:01;0.00;0.00;0.62;0.00;0.00;0.62;6.63;5.50;;;27.70;28.90;;;;;;2241510;62;20370;-62
2022/09/06 03:45:47;0.00;0.00;0.62;0.00;0.00;0.62;6.83;6.13;;;27.70;28.90;;;;;;2241919;62;20402;-64
2022/09/06 03:48:32;0.00;0.00;0.62;0.00;0.00;0.62;5.83;5.33;;;27.70;28.90;;;;;;2241820;62;20358;-63
2022/09/06 03:51:17;0.00;0.00;0.62;0.00;0.00;0.62;6.10;5.60;;;27.70;28.90;;;;;;2532445;46;20604;-63
2022/09/06 03:54:01;0.00;0.00;0.62;0.00;0.00;0.62;5.90;5.40;;;27.70;29.00;;;;;;2238141;62;20692;-63
2022/09/06 03:56:47;0.00;0.00;0.62;0.00;0.00;0.62;6.57;5.83;;;27.70;29.00;;;;;;2237185;62;20407;-64
2022/09/06 03:59:32;0.00;0.00;0.62;0.00;0.00;0.62;5.70;5.30;;;27.70;29.00;;;;;;2239182;62;20375;-64
2022/09/06 04:02:16;0.00;0.00;0.62;0.00;0.00;0.62;6.70;6.10;;;27.70;29.00;;;;;;2242144;62;20415;-64
2022/09/06 04:05:01;0.00;0.00;0.62;0.00;0.00;0.62;6.70;6.00;;;27.70;29.00;;;;;;2241408;62;20580;-63
2022/09/06 04:07:46;0.00;0.00;0.62;0.00;0.00;0.62;6.03;5.43;;;27.60;28.90;;;;;;2241760;62;20367;-64
2022/09/06 04:10:32;0.00;0.00;0.62;0.00;0.00;0.62;5.70;5.30;;;27.60;28.90;;;;;;2241403;62;20390;-62
2022/09/06 04:13:18;0.00;0.00;0.62;0.00;0.00;0.62;6.67;6.07;;;27.60;28.90;;;;;;2241742;62;20428;-62
2022/09/06 04:16:04;0.00;0.00;0.62;0.00;0.00;0.62;5.80;5.30;;;27.60;28.90;;;;;;2241852;62;20714;-61
2022/09/06 04:18:50;0.00;0.00;0.62;0.00;0.00;0.62;5.77;5.27;;;27.60;28.90;;;;;;2241574;61;20403;-62
2022/09/06 04:21:34;0.00;0.00;0.62;0.00;0.00;0.62;6.50;5.90;;;27.60;29.40;;;;;;2244894;61;20754;-63
2022/09/06 04:24:19;0.00;0.00;0.62;0.00;0.00;0.62;5.23;4.80;;;27.60;28.90;;;;;;2241919;62;20418;-64
2022/09/06 04:27:04;0.00;0.00;0.62;0.00;0.00;0.62;7.17;6.57;;;27.60;28.90;;;;;;2241333;62;20370;-63
2022/09/06 04:29:51;0.00;0.00;0.62;0.00;0.00;0.62;5.80;5.27;;;27.60;28.80;;;;;;2241476;61;20466;-63
2022/09/06 04:32:36;0.00;0.00;0.62;0.00;0.00;0.62;5.90;5.40;;;27.60;28.90;;;;;;2241666;62;20487;-63
2022/09/06 04:35:20;0.00;0.00;0.62;0.00;0.00;0.62;6.30;5.80;;;27.60;28.80;;;;;;2241331;62;20387;-64
2022/09/06 04:38:05;0.00;0.00;0.62;0.00;0.00;0.62;7.20;5.90;;;27.60;28.80;;;;;;2241808;62;20622;-62
2022/09/06 04:40:50;0.00;0.00;0.62;0.00;0.00;0.62;8.63;6.10;;;27.50;29.30;;;;;;2240988;62;20458;-62
2022/09/06 04:43:35;0.00;0.00;0.62;0.00;0.00;0.62;6.17;5.67;;;27.50;28.80;;;;;;2241599;62;20366;-64
2022/09/06 04:46:24;0.00;0.00;0.62;0.00;0.00;0.62;5.90;5.30;;;27.60;28.80;;;;;;2241915;62;20394;-60
2022/09/06 04:49:09;0.00;0.00;0.62;0.00;0.00;0.62;5.60;5.10;;;27.50;28.80;;;;;;2241178;61;20379;-63
2022/09/06 04:51:54;0.00;0.00;0.62;0.00;0.00;0.62;5.23;4.73;;;27.50;28.70;;;;;;2241577;62;20414;-63
2022/09/06 04:54:39;0.00;0.00;0.62;0.00;0.00;0.62;5.80;5.30;;;27.50;28.70;;;;;;2241693;62;20366;-62
2022/09/06 04:57:24;0.00;0.00;0.62;0.00;0.00;0.62;5.93;5.43;;;27.50;28.70;;;;;;2241290;62;20422;-64
2022/09/06 05:00:10;0.00;0.00;0.62;0.00;0.00;0.62;5.60;5.10;;;27.50;28.70;;;;;;2244431;61;20757;-63
2022/09/06 05:02:56;0.00;0.00;0.62;0.00;0.00;0.62;6.33;5.50;;;27.50;28.70;;;;;;2245212;61;20366;-64
2022/09/06 05:05:41;0.00;0.00;0.62;0.00;0.00;0.62;6.40;5.80;;;27.50;28.70;;;;;;2245330;61;20392;-64
2022/09/06 05:08:25;0.00;0.00;0.62;0.00;0.00;0.62;7.10;5.33;;;27.40;28.60;;;;;;2245835;61;20362;-64
2022/09/06 05:11:10;0.00;0.00;0.62;0.00;0.00;0.62;5.77;5.17;;;27.40;28.60;;;;;;2471074;54;20738;-64
2022/09/06 05:13:55;0.00;0.00;0.62;0.00;0.00;0.62;6.00;5.30;;;27.40;29.00;;;;;;2238251;62;20368;-63
2022/09/06 05:16:39;0.00;0.00;0.62;0.00;0.00;0.62;7.80;5.17;;;27.40;28.50;;;;;;2238404;62;20486;-64
2022/09/06 05:19:25;0.00;0.00;0.62;0.00;0.00;0.62;5.77;5.27;;;27.40;28.50;;;;;;2239313;61;20366;-62
2022/09/06 05:22:10;0.00;0.00;0.62;0.00;0.00;0.62;5.70;5.20;;;27.40;28.50;;;;;;2242440;61;20442;-63
2022/09/06 05:24:55;0.00;0.00;0.62;0.00;0.00;0.62;6.03;5.53;;;27.40;28.50;;;;;;2241988;62;20606;-62
2022/09/06 05:27:40;0.00;0.00;0.62;0.00;0.00;0.62;6.37;5.77;;;27.40;28.50;;;;;;2242098;62;20568;-62
2022/09/06 05:30:24;0.00;0.00;0.62;0.00;0.00;0.62;6.13;5.40;;;27.40;28.50;;;;;;2242437;62;20378;-63
2022/09/06 05:33:10;0.00;0.00;0.62;0.00;0.00;0.62;5.60;5.10;;;27.40;28.40;;;;;;2241362;62;20711;-68
2022/09/06 05:35:56;0.00;0.00;0.62;0.00;0.00;0.62;5.40;4.90;;;27.40;28.50;;;;;;2241909;62;20365;-64
2022/09/06 05:38:41;0.00;0.00;0.62;0.00;0.00;0.62;6.10;5.60;;;27.30;28.30;;;;;;2242397;61;20366;-64
2022/09/06 05:41:26;0.00;0.00;0.62;0.00;0.00;0.62;6.70;6.10;;;27.30;28.30;;;;;;2280454;58;20406;-63
2022/09/06 05:44:10;0.00;0.00;0.62;0.00;0.00;0.62;5.73;5.23;;;27.30;28.30;;;;;;2242184;62;20362;-66
2022/09/06 05:46:55;0.00;0.00;0.62;0.00;0.00;0.62;5.90;5.40;;;27.30;28.30;;;;;;2241999;62;20641;-71
2022/09/06 05:49:40;0.00;0.00;0.62;0.00;0.00;0.62;6.27;5.07;;;27.30;28.30;;;;;;2241427;61;20766;-69
2022/09/06 05:52:26;0.00;0.00;0.62;0.00;0.00;0.62;6.30;5.23;;;27.30;28.30;;;;;;2242469;62;20362;-62
2022/09/06 05:55:13;0.00;0.00;0.62;0.00;0.00;0.62;6.00;5.37;;;27.30;28.20;;;;;;2241159;62;20359;-68
2022/09/06 05:57:58;0.00;0.00;0.62;0.00;0.00;0.62;6.20;5.70;;;27.20;28.20;;;;;;2241975;62;20367;-68
2022/09/06 06:00:43;0.00;0.00;0.62;0.00;0.00;0.62;6.03;5.50;;;27.20;28.20;;;;;;2242194;62;20794;-67
2022/09/06 06:03:28;0.00;0.00;0.62;0.00;0.00;0.62;6.23;5.73;;;27.20;28.10;;;;;;2241771;62;20371;-64
2022/09/06 06:06:12;0.00;0.00;0.62;0.00;0.00;0.62;9.03;6.10;;;27.20;28.10;;;;;;2242180;62;20394;-66
2022/09/06 06:08:59;0.00;0.00;0.62;0.00;0.00;0.62;7.10;6.50;;;27.20;28.10;;;;;;2241925;61;20441;-63
2022/09/06 06:11:43;0.00;0.00;0.62;0.00;0.00;0.62;7.13;6.53;;;27.20;28.10;;;;;;2242078;62;20492;-65
2022/09/06 06:14:28;0.00;0.00;0.62;0.00;0.00;0.62;6.87;6.20;;;27.20;28.20;;;;;;2242336;62;20652;-69
2022/09/06 06:17:13;0.00;0.00;0.62;0.00;0.00;0.62;6.30;5.53;;;27.10;28.10;;;;;;2241351;62;20363;-70
2022/09/06 06:19:57;0.00;0.00;0.62;0.00;0.00;0.62;6.73;6.03;;;27.10;28.30;;;;;;2242071;62;20770;-63
2022/09/06 06:22:42;0.00;0.00;0.62;0.00;0.00;0.62;7.43;6.17;;;27.10;28.40;;;;;;2242186;62;20715;-68
2022/09/06 06:25:28;0.00;0.00;0.62;0.00;0.00;0.62;5.93;5.33;;;27.10;28.40;;;;;;2241448;62;20397;-70
2022/09/06 06:28:13;0.00;0.00;0.62;0.00;0.00;0.62;7.53;6.70;;;27.00;28.40;;;;;;2242025;62;20743;-62
2022/09/06 06:30:57;0.00;0.00;0.62;0.00;0.00;0.62;8.13;6.33;;;27.00;28.50;;;;;;2241777;62;20441;-61
2022/09/06 06:33:43;0.00;0.00;0.62;0.00;0.00;0.62;8.40;5.90;;;27.00;28.70;;;;;;2241617;62;20357;-71
2022/09/06 06:36:32;0.00;0.00;0.62;0.00;0.00;0.62;6.93;5.67;;;27.00;28.70;;;;;;2242011;62;20399;-62
2022/09/06 06:39:17;0.00;0.00;0.62;0.00;0.00;0.62;9.67;5.90;;;27.00;28.90;;;;;;2241533;62;20363;-65
2022/09/06 06:42:04;0.00;0.00;0.62;0.00;0.00;0.62;6.33;5.30;;;27.00;28.90;;;;;;2241586;62;20382;-69
2022/09/06 06:45:00;0.00;0.00;0.62;0.00;0.00;0.62;14.73;5.87;;;27.00;29.00;;;;;;2242188;62;20391;-70
2022/09/06 06:47:48;0.00;0.00;0.62;0.00;0.00;0.62;6.17;5.37;;;27.00;29.00;;;;;;2241412;62;20631;-70
2022/09/06 06:50:33;0.00;0.00;0.62;0.00;0.00;0.62;6.13;5.53;;;27.00;29.00;;;;;;2241234;61;20443;-70
2022/09/06 06:53:18;0.00;0.00;0.62;0.00;0.00;0.62;6.70;5.97;;;27.00;29.10;;;;;;2241736;62;20726;-68
2022/09/06 06:56:15;0.00;0.00;0.62;0.00;0.00;0.62;8.23;6.47;;;27.00;29.00;;;;;;2241215;62;20418;-73
2022/09/06 06:59:05;0.00;0.00;0.62;0.00;0.00;0.62;6.33;5.73;;;27.00;29.10;;;;;;2242824;61;20377;-64
2022/09/06 07:01:51;0.00;0.00;0.62;0.00;0.00;0.62;6.90;5.77;;;27.00;29.10;;;;;;2245290;61;20585;-69
2022/09/06 07:04:36;0.00;0.00;0.62;0.00;0.00;0.62;7.10;5.67;;;27.00;29.20;;;;;;2245750;61;20456;-68
2022/09/06 07:07:20;0.00;0.00;0.62;0.00;0.00;0.62;6.90;6.20;;;27.00;29.80;;;;;;2246166;61;20373;-66
2022/09/06 07:10:06;0.00;0.00;0.62;0.00;0.00;0.62;8.00;6.67;;;27.00;29.30;;;;;;2245469;61;20400;-65
2022/09/06 07:12:51;0.00;0.00;0.62;0.00;0.00;0.62;5.90;5.40;;;27.00;29.30;;;;;;2245931;61;20368;-65
2022/09/06 07:15:37;0.00;0.00;0.62;0.00;0.00;0.62;7.23;6.07;;;27.00;29.30;;;;;;2245879;61;20357;-63
2022/09/06 07:18:21;0.00;0.00;0.62;0.00;0.00;0.62;6.30;5.30;;;27.00;29.30;;;;;;2245748;61;20349;-64
2022/09/06 07:21:10;0.00;0.00;0.62;0.00;0.00;0.62;6.53;5.93;;;27.00;29.30;;;;;;2536545;46;20398;-66
2022/09/06 07:23:56;0.00;0.00;0.62;0.00;0.00;0.62;5.43;5.00;;;27.00;29.30;;;;;;2245425;61;20361;-70
2022/09/06 07:26:41;0.00;0.00;0.62;0.00;0.00;0.62;6.20;5.70;;;27.00;29.30;;;;;;2245723;61;20437;-71
2022/09/06 07:29:26;0.00;0.00;0.62;0.00;0.00;0.62;5.50;5.00;;;27.00;29.30;;;;;;2244476;61;20702;-64
2022/09/06 07:32:11;0.00;0.00;0.62;0.00;0.00;0.62;6.77;6.07;;;27.00;29.40;;;;;;2241499;62;20822;-67
2022/09/06 07:34:56;0.00;0.00;0.62;0.00;0.00;0.62;5.93;5.40;;;27.00;29.50;;;;;;2241915;62;20487;-63
2022/09/06 07:37:41;0.00;0.00;0.62;0.00;0.00;0.62;6.00;5.10;;;27.00;29.40;;;;;;2241583;62;20746;-63
2022/09/06 07:40:27;0.00;0.00;0.62;0.00;0.00;0.62;5.80;5.30;;;27.00;29.50;;;;;;2241329;62;20785;-63
2022/09/06 07:43:13;0.00;0.00;0.62;0.00;0.00;0.62;6.00;5.50;;;27.00;29.50;;;;;;2242071;62;20411;-65
2022/09/06 07:46:00;0.00;0.00;0.62;0.00;0.00;0.62;6.40;5.80;;;27.00;29.40;;;;;;2241350;62;20674;-60
2022/09/06 07:48:48;0.00;0.00;0.62;0.00;0.00;0.62;7.80;5.27;;;27.00;29.40;;;;;;2241539;61;20374;-68
2022/09/06 07:51:33;0.00;0.00;0.62;0.00;0.00;0.62;5.67;5.17;;;27.00;29.40;;;;;;2241859;62;20454;-67
2022/09/06 07:54:17;0.00;0.00;0.62;0.00;0.00;0.62;6.20;5.20;;;27.00;29.50;;;;;;2244610;61;20413;-69
2022/09/06 07:57:02;0.00;0.00;0.62;0.00;0.00;0.62;6.10;5.60;;;27.00;29.50;;;;;;2245615;61;20638;-67
2022/09/06 07:59:47;0.00;0.00;0.62;0.00;0.00;0.62;6.67;5.87;;;27.00;29.70;;;;;;2245481;61;20458;-66
2022/09/06 08:02:31;0.00;0.00;0.62;0.00;0.00;0.62;6.37;5.60;;;27.00;29.70;;;;;;2245466;61;20429;-71
2022/09/06 08:05:17;0.00;0.00;0.62;0.00;0.00;0.62;5.60;5.10;;;27.00;29.70;;;;;;2245947;61;20741;-69
2022/09/06 08:08:02;0.00;0.00;0.62;0.00;0.00;0.62;5.07;4.67;;;27.00;29.70;;;;;;2245296;61;20373;-67
2022/09/06 08:10:50;0.00;0.00;0.62;0.00;0.00;0.62;6.00;5.40;;;27.00;29.70;;;;;;2245520;61;20381;-70
2022/09/06 08:13:35;0.00;0.00;0.62;0.00;0.00;0.62;6.73;5.00;;;27.00;29.70;;;;;;2245907;61;20399;-71
2022/09/06 08:16:21;0.00;0.00;0.62;0.00;0.00;0.62;5.27;4.77;;;27.00;30.20;;;;;;2245198;61;20365;-70
2022/09/06 08:19:11;0.00;0.00;0.62;0.00;0.00;0.62;7.00;5.47;;;26.90;29.60;;;;;;2245387;61;20725;-67
2022/09/06 08:21:57;0.00;0.00;0.62;0.00;0.00;0.62;5.60;5.10;;;26.90;29.60;;;;;;2245552;61;20721;-68
2022/09/06 08:24:42;0.00;0.00;0.62;0.00;0.00;0.62;5.53;4.93;;;26.90;29.60;;;;;;2245124;61;20389;-68
2022/09/06 08:27:27;0.00;0.00;0.62;0.00;0.00;0.62;5.40;4.90;;;26.90;29.60;;;;;;2245851;61;20370;-67
2022/09/06 08:30:13;0.00;0.00;0.62;0.00;0.00;0.62;6.00;5.40;;;26.90;29.60;;;;;;2245014;61;20425;-68
2022/09/06 08:32:58;0.00;0.00;0.62;0.00;0.00;0.62;5.60;5.07;;;26.90;29.70;;;;;;2245429;61;20366;-68
2022/09/06 08:35:42;0.00;0.00;0.62;0.00;0.00;0.62;5.47;5.00;;;26.90;29.70;;;;;;2245677;61;20389;-69
2022/09/06 08:38:29;0.00;0.00;0.62;0.00;0.00;0.62;6.07;4.73;;;26.90;29.70;;;;;;2245021;61;20585;-67
2022/09/06 08:41:24;0.00;0.00;0.62;0.00;0.00;0.62;5.83;4.77;;;26.90;29.80;;;;;;2245396;61;20405;-69
2022/09/06 08:44:13;0.00;0.00;0.62;0.00;0.00;0.62;6.63;5.57;;;26.90;29.80;;;;;;2245668;61;20381;-70
2022/09/06 08:47:01;0.00;0.00;0.62;0.00;0.00;0.62;5.30;4.80;;;26.90;29.70;;;;;;2245863;61;20378;-67
2022/09/06 08:49:48;0.00;0.00;0.62;0.00;0.00;0.62;5.50;4.90;;;26.90;29.80;;;;;;2246559;61;20741;-66
2022/09/06 08:52:49;0.00;0.00;0.62;0.00;0.00;0.62;7.47;5.10;;;26.90;29.90;;;;;;2245660;61;20365;-67
2022/09/06 08:55:42;0.00;0.00;0.62;0.00;0.00;0.62;5.20;4.70;;;26.90;30.50;;;;;;2246122;61;20458;-68
2022/09/06 08:58:52;0.00;0.00;0.62;0.00;0.00;0.62;5.57;5.07;;;26.90;29.90;;;;;;2246297;61;20401;-66
2022/09/06 09:01:54;0.00;0.00;0.62;0.00;0.00;0.62;5.90;5.30;;;26.80;29.90;;;;;;2245783;61;20373;-65
2022/09/06 09:04:44;0.00;0.00;0.62;0.00;0.00;0.62;7.73;5.30;;;26.80;30.00;;;;;;2246572;61;20427;-66
2022/09/06 09:07:38;0.00;0.00;0.62;0.00;0.00;0.62;5.70;5.20;;;26.80;30.10;;;;;;2245765;61;20483;-65
2022/09/06 09:10:27;0.00;0.00;0.62;0.00;0.00;0.62;5.33;4.83;;;26.80;30.00;;;;;;2246013;61;20384;-69
2022/09/06 09:13:24;0.00;0.00;0.62;0.00;0.00;0.62;6.33;4.93;;;26.80;30.70;;;;;;2246550;61;20409;-70
2022/09/06 09:16:08;0.00;0.00;0.62;0.00;0.00;0.62;6.37;5.27;;;26.80;30.00;;;;;;2245964;61;20370;-66
2022/09/06 09:18:57;0.00;0.00;0.62;0.00;0.00;0.62;5.57;4.97;;;26.80;30.80;;;;;;2246206;61;20361;-69
2022/09/06 09:21:42;0.00;0.00;0.62;0.00;0.00;0.62;6.27;5.40;;;26.80;30.20;;;;;;2245719;61;20393;-70
2022/09/06 09:24:27;0.00;0.00;0.62;0.00;0.00;0.62;6.20;4.93;;;26.80;30.30;;;;;;2246084;61;20402;-64
2022/09/06 09:27:15;0.00;0.00;0.62;0.00;0.00;0.62;5.23;4.73;;;26.80;31.00;;;;;;2246437;61;20365;-66
2022/09/06 09:30:05;0.00;0.00;0.62;0.00;0.00;0.62;5.33;4.83;;;26.80;30.20;;;;;;2245562;61;20417;-69
2022/09/06 09:32:49;0.00;0.00;0.62;0.00;0.00;0.62;6.23;5.23;;;26.80;30.40;;;;;;2246173;61;20584;-68
2022/09/06 09:35:40;0.00;0.00;0.62;0.00;0.00;0.62;5.27;4.87;;;26.80;30.40;;;;;;2246534;61;20366;-66
2022/09/06 09:38:29;0.00;0.00;0.62;0.00;0.00;0.62;5.53;5.00;;;26.80;30.30;;;;;;2245839;61;20362;-64
2022/09/06 09:41:27;0.00;0.00;0.62;0.00;0.00;0.62;5.87;5.07;;;26.70;30.30;;;;;;2246289;61;20437;-64
2022/09/06 09:44:17;0.00;0.00;0.62;0.00;0.00;0.62;6.20;5.03;;;26.80;30.30;;;;;;2245491;61;20368;-65
2022/09/06 09:47:22;0.00;0.00;0.62;0.00;0.00;0.62;5.50;4.93;;;26.70;30.20;;;;;;2246192;61;20378;-69
2022/09/06 09:50:23;0.00;0.00;0.62;0.00;0.00;0.62;7.00;4.57;;;26.70;30.40;;;;;;2246215;61;20460;-65
2022/09/06 09:53:10;0.00;0.00;0.62;0.00;0.00;0.62;5.67;4.70;;;26.70;30.50;;;;;;2246140;61;20613;-63
2022/09/06 09:55:57;0.00;0.00;0.62;0.00;0.00;0.62;6.83;5.17;;;26.70;30.60;;;;;;2246235;61;20377;-63
2022/09/06 09:58:42;0.00;0.00;0.62;0.00;0.00;0.62;5.27;4.50;;;26.70;30.60;;;;;;2245150;61;20422;-67
2022/09/06 10:01:29;0.00;0.00;0.62;0.00;0.00;0.62;8.90;4.97;;;26.70;30.60;;;;;;2246140;61;20374;-68
2022/09/06 10:04:27;0.00;0.00;0.62;0.00;0.00;0.62;5.97;4.57;;;26.70;30.90;;;;;;2246310;61;20362;-65
2022/09/06 10:07:15;0.00;0.00;0.62;0.00;0.00;0.62;7.17;4.50;;;26.70;30.90;;;;;;2245690;61;20370;-64
2022/09/06 10:10:04;0.00;0.00;0.62;0.00;0.00;0.62;4.47;4.00;;;26.70;30.90;;;;;;2245824;61;20385;-64
2022/09/06 10:13:05;0.00;0.00;0.62;0.00;0.00;0.62;5.13;4.43;;;26.70;30.80;;;;;;2246134;61;20446;-67
2022/09/06 10:15:52;0.00;0.00;0.62;0.00;0.00;0.62;4.83;4.30;;;26.70;31.10;;;;;;2245657;61;20580;-66
2022/09/06 10:18:39;0.00;0.00;0.62;0.00;0.00;0.62;6.43;4.60;;;26.70;30.90;;;;;;2245874;61;20471;-65
2022/09/06 10:21:28;0.00;0.00;0.62;0.00;0.00;0.62;5.77;4.73;;;26.70;31.20;;;;;;2245220;61;20479;-64
2022/09/06 10:24:25;0.00;0.00;0.62;0.00;0.00;0.62;6.63;4.73;;;26.60;31.10;;;;;;2245941;61;20365;-69
2022/09/06 10:27:11;0.00;0.00;0.62;0.00;0.00;0.62;5.13;4.63;;;26.60;31.10;;;;;;2246330;61;20482;-66
2022/09/06 10:30:01;0.00;0.00;0.62;0.00;0.00;0.62;5.13;4.50;;;26.60;31.10;;;;;;2245431;61;20417;-68
2022/09/06 10:32:50;0.00;0.00;0.62;0.00;0.00;0.62;8.47;4.50;;;26.60;31.10;;;;;;2248153;61;20438;-65
2022/09/06 10:35:37;0.00;0.00;0.62;0.00;0.00;0.62;8.13;4.87;;;26.60;31.10;;;;;;2245876;61;20358;-64
2022/09/06 10:38:51;0.00;0.00;0.62;0.00;0.00;0.62;4.80;4.30;;;26.60;31.10;;;;;;2245804;61;20410;-66
2022/09/06 10:41:57;0.00;0.00;0.62;0.00;0.00;0.62;6.00;4.67;;;26.50;30.80;;;;;;2246076;61;20397;-66
2022/09/06 10:44:59;0.00;0.00;0.62;0.00;0.00;0.62;5.40;4.30;;;26.50;31.40;;;;;;2245478;61;20421;-64
2022/09/06 10:47:56;0.00;0.00;0.62;0.00;0.00;0.62;6.57;4.77;;;26.60;30.60;;;;;;2246136;61;20600;-64
2022/09/06 10:50:49;0.00;0.00;0.62;0.00;0.00;0.62;5.00;4.03;;;26.50;30.50;;;;;;2245232;61;20401;-63
2022/09/06 10:53:47;0.00;0.00;0.62;0.00;0.00;0.62;5.00;4.50;;;26.50;30.40;;;;;;2245719;61;20362;-64
2022/09/06 10:56:40;0.00;0.00;0.62;0.00;0.00;0.62;4.40;4.00;;;26.50;30.40;;;;;;2246385;61;20354;-63
2022/09/06 10:59:29;0.00;0.00;0.62;0.00;0.00;0.62;7.83;4.70;;;26.50;30.20;;;;;;2245109;61;20365;-64
2022/09/06 11:02:31;0.00;0.00;0.62;0.00;0.00;0.62;4.20;3.73;;;26.50;30.90;;;;;;2245845;61;20377;-64
2022/09/06 11:05:20;0.00;0.00;0.62;0.00;0.00;0.62;5.20;3.90;;;26.50;30.20;;;;;;2245575;61;20722;-64